sensor_id;sensor_type;location;lat;lon;timestamp;temperature;humidity
14783;DHT22;7483;50.498;12.138;2023-02-01T00:01:17;3.80;99.90
14783;DHT22;7483;50.498;12.138;2023-02-01T00:03:45;3.80;99.90
14783;DHT22;7483;50.498;12.138;2023-02-01T00:06:13;3.80;99.90
14783;DHT22;7483;50.498;12.138;2023-02-01T00:08:41;3.80;99.90
14783;DHT22;7483;50.498;12.138;2023-02-01T00:11:10;3.70;99.90
14783;DHT22;7483;50.498;12.138;2023-02-01T00:13:41;3.80;99.90
14783;DHT22;7483;50.498;12.138;2023-02-01T00:16:11;3.70;99.90
14783;DHT22;7483;50.498;12.138;2023-02-01T00:18:42;3.70;99.90
14783;DHT22;7483;50.498;12.138;2023-02-01T00:21:11;3.70;99.90
14783;DHT22;7483;50.498;12.138;2023-02-01T00:23:39;3.70;99.90
14783;DHT22;7483;50.498;12.138;2023-02-01T00:26:12;3.70;99.90
14783;DHT22;7483;50.498;12.138;2023-02-01T00:28:42;3.70;99.90
14783;DHT22;7483;50.498;12.138;2023-02-01T00:31:10;3.70;99.90
14783;DHT22;7483;50.498;12.138;2023-02-01T00:33:39;3.70;99.90
14783;DHT22;7483;50.498;12.138;2023-02-01T00:36:09;3.70;99.90
14783;DHT22;7483;50.498;12.138;2023-02-01T00:38:38;3.70;99.90
14783;DHT22;7483;50.498;12.138;2023-02-01T00:41:09;3.70;99.90
14783;DHT22;7483;50.498;12.138;2023-02-01T00:43:39;3.70;99.90
14783;DHT22;7483;50.498;12.138;2023-02-01T00:46:07;3.70;99.90
14783;DHT22;7483;50.498;12.138;2023-02-01T00:48:36;3.70;99.90
14783;DHT22;7483;50.498;12.138;2023-02-01T00:51:06;3.60;99.90
14783;DHT22;7483;50.498;12.138;2023-02-01T00:53:37;3.60;99.90
14783;DHT22;7483;50.498;12.138;2023-02-01T00:56:05;3.60;99.90
14783;DHT22;7483;50.498;12.138;2023-02-01T00:58:34;3.60;99.90
14783;DHT22;7483;50.498;12.138;2023-02-01T01:01:04;3.60;99.90
14783;DHT22;7483;50.498;12.138;2023-02-01T01:03:35;3.50;99.90
14783;DHT22;7483;50.498;12.138;2023-02-01T01:06:06;3.50;99.90
14783;DHT22;7483;50.498;12.138;2023-02-01T01:08:37;3.50;99.90
14783;DHT22;7483;50.498;12.138;2023-02-01T01:11:07;3.50;99.90
14783;DHT22;7483;50.498;12.138;2023-02-01T01:13:36;3.50;99.90
14783;DHT22;7483;50.498;12.138;2023-02-01T01:16:05;3.50;99.90
14783;DHT22;7483;50.498;12.138;2023-02-01T01:18:35;3.50;99.90
14783;DHT22;7483;50.498;12.138;2023-02-01T01:21:04;3.50;99.90
14783;DHT22;7483;50.498;12.138;2023-02-01T01:23:35;3.40;99.90
14783;DHT22;7483;50.498;12.138;2023-02-01T01:26:06;3.40;99.90
14783;DHT22;7483;50.498;12.138;2023-02-01T01:28:34;3.40;99.90
14783;DHT22;7483;50.498;12.138;2023-02-01T01:31:03;3.40;99.90
14783;DHT22;7483;50.498;12.138;2023-02-01T01:33:35;3.50;99.90
14783;DHT22;7483;50.498;12.138;2023-02-01T01:36:04;3.50;99.90
14783;DHT22;7483;50.498;12.138;2023-02-01T01:38:35;3.50;99.90
14783;DHT22;7483;50.498;12.138;2023-02-01T01:41:03;3.60;99.90
14783;DHT22;7483;50.498;12.138;2023-02-01T01:43:47;3.70;99.90
14783;DHT22;7483;50.498;12.138;2023-02-01T01:46:19;3.60;99.90
14783;DHT22;7483;50.498;12.138;2023-02-01T01:48:52;3.60;99.90
14783;DHT22;7483;50.498;12.138;2023-02-01T01:51:26;3.60;99.90
14783;DHT22;7483;50.498;12.138;2023-02-01T01:54:04;3.60;99.90
14783;DHT22;7483;50.498;12.138;2023-02-01T01:56:35;3.70;99.90
14783;DHT22;7483;50.498;12.138;2023-02-01T01:59:04;3.60;99.90
14783;DHT22;7483;50.498;12.138;2023-02-01T02:01:33;3.70;99.90
14783;DHT22;7483;50.498;12.138;2023-02-01T02:04:01;3.60;99.90
14783;DHT22;7483;50.498;12.138;2023-02-01T02:06:36;3.70;99.90
14783;DHT22;7483;50.498;12.138;2023-02-01T02:09:09;3.70;99.90
14783;DHT22;7483;50.498;12.138;2023-02-01T02:11:37;3.70;99.90
14783;DHT22;7483;50.498;12.138;2023-02-01T02:14:09;3.60;99.90
14783;DHT22;7483;50.498;12.138;2023-02-01T02:16:47;3.60;99.90
14783;DHT22;7483;50.498;12.138;2023-02-01T02:19:51;3.60;99.90
14783;DHT22;7483;50.498;12.138;2023-02-01T02:23:12;3.60;99.90
14783;DHT22;7483;50.498;12.138;2023-02-01T02:26:07;3.60;99.90
14783;DHT22;7483;50.498;12.138;2023-02-01T02:29:26;3.70;99.90
14783;DHT22;7483;50.498;12.138;2023-02-01T02:32:35;3.70;99.90
14783;DHT22;7483;50.498;12.138;2023-02-01T02:35:26;3.60;99.90
14783;DHT22;7483;50.498;12.138;2023-02-01T02:38:06;3.60;99.90
14783;DHT22;7483;50.498;12.138;2023-02-01T02:40:48;3.60;99.90
14783;DHT22;7483;50.498;12.138;2023-02-01T02:43:28;3.70;99.90
14783;DHT22;7483;50.498;12.138;2023-02-01T02:46:21;3.70;99.90
14783;DHT22;7483;50.498;12.138;2023-02-01T02:49:14;3.60;99.90
14783;DHT22;7483;50.498;12.138;2023-02-01T02:51:50;3.70;99.90
14783;DHT22;7483;50.498;12.138;2023-02-01T02:54:44;3.70;99.90
14783;DHT22;7483;50.498;12.138;2023-02-01T02:57:19;3.70;99.90
14783;DHT22;7483;50.498;12.138;2023-02-01T03:00:10;3.70;99.90
14783;DHT22;7483;50.498;12.138;2023-02-01T03:02:58;3.70;99.90
14783;DHT22;7483;50.498;12.138;2023-02-01T03:05:46;3.70;99.90
14783;DHT22;7483;50.498;12.138;2023-02-01T03:08:20;3.70;99.90
14783;DHT22;7483;50.498;12.138;2023-02-01T03:10:56;3.70;99.90
14783;DHT22;7483;50.498;12.138;2023-02-01T03:13:42;3.70;99.90
14783;DHT22;7483;50.498;12.138;2023-02-01T03:16:15;3.70;99.90
14783;DHT22;7483;50.498;12.138;2023-02-01T03:18:52;3.70;99.90
14783;DHT22;7483;50.498;12.138;2023-02-01T03:21:26;3.60;99.90
14783;DHT22;7483;50.498;12.138;2023-02-01T03:24:02;3.70;99.90
14783;DHT22;7483;50.498;12.138;2023-02-01T03:26:37;3.60;99.90
14783;DHT22;7483;50.498;12.138;2023-02-01T03:29:13;3.60;99.90
14783;DHT22;7483;50.498;12.138;2023-02-01T03:31:45;3.60;99.90
14783;DHT22;7483;50.498;12.138;2023-02-01T03:34:13;3.60;99.90
14783;DHT22;7483;50.498;12.138;2023-02-01T03:36:47;3.60;99.90
14783;DHT22;7483;50.498;12.138;2023-02-01T03:39:23;3.60;99.90
14783;DHT22;7483;50.498;12.138;2023-02-01T03:41:59;3.70;99.90
14783;DHT22;7483;50.498;12.138;2023-02-01T03:44:33;3.70;99.90
14783;DHT22;7483;50.498;12.138;2023-02-01T03:47:06;3.70;99.90
14783;DHT22;7483;50.498;12.138;2023-02-01T03:49:42;3.70;99.90
14783;DHT22;7483;50.498;12.138;2023-02-01T03:52:14;3.70;99.90
14783;DHT22;7483;50.498;12.138;2023-02-01T03:54:49;3.70;99.90
14783;DHT22;7483;50.498;12.138;2023-02-01T03:57:23;3.60;99.90
14783;DHT22;7483;50.498;12.138;2023-02-01T04:00:05;3.60;99.90
14783;DHT22;7483;50.498;12.138;2023-02-01T04:02:39;3.60;99.90
14783;DHT22;7483;50.498;12.138;2023-02-01T04:05:08;3.50;99.90
14783;DHT22;7483;50.498;12.138;2023-02-01T04:07:42;3.50;99.90
14783;DHT22;7483;50.498;12.138;2023-02-01T04:10:12;3.50;99.90
14783;DHT22;7483;50.498;12.138;2023-02-01T04:12:43;3.50;99.90
14783;DHT22;7483;50.498;12.138;2023-02-01T04:15:11;3.40;99.90
14783;DHT22;7483;50.498;12.138;2023-02-01T04:17:39;3.40;99.90
14783;DHT22;7483;50.498;12.138;2023-02-01T04:20:08;3.50;99.90
14783;DHT22;7483;50.498;12.138;2023-02-01T04:22:37;3.50;99.90
14783;DHT22;7483;50.498;12.138;2023-02-01T04:25:06;3.40;99.90
14783;DHT22;7483;50.498;12.138;2023-02-01T04:27:36;3.40;99.90
14783;DHT22;7483;50.498;12.138;2023-02-01T04:30:05;3.40;99.90
14783;DHT22;7483;50.498;12.138;2023-02-01T04:32:36;3.50;99.90
14783;DHT22;7483;50.498;12.138;2023-02-01T04:35:05;3.50;99.90
14783;DHT22;7483;50.498;12.138;2023-02-01T04:37:35;3.40;99.90
14783;DHT22;7483;50.498;12.138;2023-02-01T04:40:04;3.50;99.90
14783;DHT22;7483;50.498;12.138;2023-02-01T04:42:32;3.50;99.90
14783;DHT22;7483;50.498;12.138;2023-02-01T04:45:02;3.40;99.90
14783;DHT22;7483;50.498;12.138;2023-02-01T04:47:30;3.40;99.90
14783;DHT22;7483;50.498;12.138;2023-02-01T04:49:58;3.50;99.90
14783;DHT22;7483;50.498;12.138;2023-02-01T04:52:26;3.50;99.90
14783;DHT22;7483;50.498;12.138;2023-02-01T04:54:54;3.50;99.90
14783;DHT22;7483;50.498;12.138;2023-02-01T04:57:25;3.50;99.90
14783;DHT22;7483;50.498;12.138;2023-02-01T04:59:53;3.50;99.90
14783;DHT22;7483;50.498;12.138;2023-02-01T05:02:22;3.50;99.90
14783;DHT22;7483;50.498;12.138;2023-02-01T05:04:50;3.50;99.90
14783;DHT22;7483;50.498;12.138;2023-02-01T05:07:18;3.50;99.90
14783;DHT22;7483;50.498;12.138;2023-02-01T05:09:46;3.50;99.90
14783;DHT22;7483;50.498;12.138;2023-02-01T05:12:14;3.50;99.90
14783;DHT22;7483;50.498;12.138;2023-02-01T05:15:00;3.60;99.90
14783;DHT22;7483;50.498;12.138;2023-02-01T05:17:29;3.60;99.90
14783;DHT22;7483;50.498;12.138;2023-02-01T05:19:57;3.60;99.90
14783;DHT22;7483;50.498;12.138;2023-02-01T05:22:25;3.60;99.90
14783;DHT22;7483;50.498;12.138;2023-02-01T05:24:53;3.60;99.90
14783;DHT22;7483;50.498;12.138;2023-02-01T05:27:21;3.60;99.90
14783;DHT22;7483;50.498;12.138;2023-02-01T05:29:49;3.60;99.90
14783;DHT22;7483;50.498;12.138;2023-02-01T05:32:17;3.60;99.90
14783;DHT22;7483;50.498;12.138;2023-02-01T05:34:50;3.60;99.90
14783;DHT22;7483;50.498;12.138;2023-02-01T05:37:18;3.60;99.90
14783;DHT22;7483;50.498;12.138;2023-02-01T05:39:46;3.70;99.90
14783;DHT22;7483;50.498;12.138;2023-02-01T05:42:14;3.70;99.90
14783;DHT22;7483;50.498;12.138;2023-02-01T05:44:42;3.80;99.90
14783;DHT22;7483;50.498;12.138;2023-02-01T05:47:10;3.80;99.90
14783;DHT22;7483;50.498;12.138;2023-02-01T05:49:39;3.80;99.90
14783;DHT22;7483;50.498;12.138;2023-02-01T05:52:08;3.80;99.90
14783;DHT22;7483;50.498;12.138;2023-02-01T05:54:36;3.80;99.90
14783;DHT22;7483;50.498;12.138;2023-02-01T05:57:04;3.80;99.90
14783;DHT22;7483;50.498;12.138;2023-02-01T05:59:32;3.80;99.90
14783;DHT22;7483;50.498;12.138;2023-02-01T06:01:59;3.80;99.90
14783;DHT22;7483;50.498;12.138;2023-02-01T06:04:27;3.80;99.90
14783;DHT22;7483;50.498;12.138;2023-02-01T06:06:55;3.90;99.90
14783;DHT22;7483;50.498;12.138;2023-02-01T06:09:25;3.90;99.90
14783;DHT22;7483;50.498;12.138;2023-02-01T06:11:53;3.80;99.90
14783;DHT22;7483;50.498;12.138;2023-02-01T06:14:20;3.90;99.90
14783;DHT22;7483;50.498;12.138;2023-02-01T06:16:48;3.90;99.90
14783;DHT22;7483;50.498;12.138;2023-02-01T06:19:16;3.90;99.90
14783;DHT22;7483;50.498;12.138;2023-02-01T06:21:44;3.90;99.90
14783;DHT22;7483;50.498;12.138;2023-02-01T06:24:13;3.90;99.90
14783;DHT22;7483;50.498;12.138;2023-02-01T06:26:42;3.90;99.90
14783;DHT22;7483;50.498;12.138;2023-02-01T06:29:11;3.90;99.90
14783;DHT22;7483;50.498;12.138;2023-02-01T06:31:39;3.90;99.90
14783;DHT22;7483;50.498;12.138;2023-02-01T06:34:09;3.90;99.90
14783;DHT22;7483;50.498;12.138;2023-02-01T06:36:37;3.90;99.90
14783;DHT22;7483;50.498;12.138;2023-02-01T06:39:05;4.00;99.90
14783;DHT22;7483;50.498;12.138;2023-02-01T06:41:33;4.00;99.90
14783;DHT22;7483;50.498;12.138;2023-02-01T06:44:03;4.00;99.90
14783;DHT22;7483;50.498;12.138;2023-02-01T06:46:31;4.10;99.90
14783;DHT22;7483;50.498;12.138;2023-02-01T06:48:59;4.00;99.90
14783;DHT22;7483;50.498;12.138;2023-02-01T06:51:27;4.00;99.90
14783;DHT22;7483;50.498;12.138;2023-02-01T06:53:57;4.00;99.90
14783;DHT22;7483;50.498;12.138;2023-02-01T06:56:25;4.00;99.90
14783;DHT22;7483;50.498;12.138;2023-02-01T06:58:54;4.00;99.90
14783;DHT22;7483;50.498;12.138;2023-02-01T07:01:23;3.90;99.90
14783;DHT22;7483;50.498;12.138;2023-02-01T07:03:51;3.90;99.90
14783;DHT22;7483;50.498;12.138;2023-02-01T07:06:19;3.90;99.90
14783;DHT22;7483;50.498;12.138;2023-02-01T07:08:47;3.90;99.90
14783;DHT22;7483;50.498;12.138;2023-02-01T07:11:17;3.80;99.90
14783;DHT22;7483;50.498;12.138;2023-02-01T07:13:46;3.90;99.90
14783;DHT22;7483;50.498;12.138;2023-02-01T07:16:15;3.80;99.90
14783;DHT22;7483;50.498;12.138;2023-02-01T07:18:47;3.80;99.90
14783;DHT22;7483;50.498;12.138;2023-02-01T07:21:17;3.80;99.90
14783;DHT22;7483;50.498;12.138;2023-02-01T07:23:45;3.80;99.90
14783;DHT22;7483;50.498;12.138;2023-02-01T07:26:14;3.80;99.90
14783;DHT22;7483;50.498;12.138;2023-02-01T07:28:43;3.80;99.90
14783;DHT22;7483;50.498;12.138;2023-02-01T07:31:13;3.80;99.90
14783;DHT22;7483;50.498;12.138;2023-02-01T07:33:46;3.80;99.90
14783;DHT22;7483;50.498;12.138;2023-02-01T07:36:15;3.80;99.90
14783;DHT22;7483;50.498;12.138;2023-02-01T07:38:44;3.90;99.90
14783;DHT22;7483;50.498;12.138;2023-02-01T07:41:14;3.90;99.90
14783;DHT22;7483;50.498;12.138;2023-02-01T07:43:43;3.90;99.90
14783;DHT22;7483;50.498;12.138;2023-02-01T07:46:11;4.00;99.90
14783;DHT22;7483;50.498;12.138;2023-02-01T07:48:42;4.00;99.90
14783;DHT22;7483;50.498;12.138;2023-02-01T07:51:12;4.10;99.90
14783;DHT22;7483;50.498;12.138;2023-02-01T07:53:44;4.20;99.90
14783;DHT22;7483;50.498;12.138;2023-02-01T07:56:14;4.20;99.90
14783;DHT22;7483;50.498;12.138;2023-02-01T07:58:47;4.20;99.90
14783;DHT22;7483;50.498;12.138;2023-02-01T08:01:16;4.20;99.90
14783;DHT22;7483;50.498;12.138;2023-02-01T08:03:52;4.20;99.90
14783;DHT22;7483;50.498;12.138;2023-02-01T08:06:23;4.30;99.90
14783;DHT22;7483;50.498;12.138;2023-02-01T08:08:54;4.30;99.90
14783;DHT22;7483;50.498;12.138;2023-02-01T08:11:23;4.30;99.90
14783;DHT22;7483;50.498;12.138;2023-02-01T08:13:52;4.30;99.90
14783;DHT22;7483;50.498;12.138;2023-02-01T08:16:21;4.40;99.90
14783;DHT22;7483;50.498;12.138;2023-02-01T08:18:50;4.40;99.90
14783;DHT22;7483;50.498;12.138;2023-02-01T08:21:21;4.40;99.90
14783;DHT22;7483;50.498;12.138;2023-02-01T08:23:53;4.50;99.90
14783;DHT22;7483;50.498;12.138;2023-02-01T08:26:24;4.50;99.90
14783;DHT22;7483;50.498;12.138;2023-02-01T08:28:55;4.50;99.90
14783;DHT22;7483;50.498;12.138;2023-02-01T08:31:26;4.60;99.90
14783;DHT22;7483;50.498;12.138;2023-02-01T08:33:56;4.60;99.90
14783;DHT22;7483;50.498;12.138;2023-02-01T08:36:28;4.60;99.90
14783;DHT22;7483;50.498;12.138;2023-02-01T08:38:57;4.60;99.90
14783;DHT22;7483;50.498;12.138;2023-02-01T08:41:27;4.60;99.90
14783;DHT22;7483;50.498;12.138;2023-02-01T08:43:57;4.60;99.90
14783;DHT22;7483;50.498;12.138;2023-02-01T08:46:26;4.60;99.90
14783;DHT22;7483;50.498;12.138;2023-02-01T08:48:55;4.60;99.90
14783;DHT22;7483;50.498;12.138;2023-02-01T08:51:23;4.60;99.90
14783;DHT22;7483;50.498;12.138;2023-02-01T08:53:52;4.60;99.90
14783;DHT22;7483;50.498;12.138;2023-02-01T08:56:20;4.60;99.90
14783;DHT22;7483;50.498;12.138;2023-02-01T08:58:48;4.60;99.90
14783;DHT22;7483;50.498;12.138;2023-02-01T09:01:17;4.60;99.90
14783;DHT22;7483;50.498;12.138;2023-02-01T09:03:45;4.60;99.90
14783;DHT22;7483;50.498;12.138;2023-02-01T09:06:14;4.60;99.90
14783;DHT22;7483;50.498;12.138;2023-02-01T09:08:43;4.60;99.90
14783;DHT22;7483;50.498;12.138;2023-02-01T09:11:14;4.60;99.90
14783;DHT22;7483;50.498;12.138;2023-02-01T09:13:44;4.60;99.90
14783;DHT22;7483;50.498;12.138;2023-02-01T09:16:12;4.60;99.90
14783;DHT22;7483;50.498;12.138;2023-02-01T09:18:40;4.60;99.90
14783;DHT22;7483;50.498;12.138;2023-02-01T09:21:22;4.60;99.90
14783;DHT22;7483;50.498;12.138;2023-02-01T09:23:50;4.60;99.90
14783;DHT22;7483;50.498;12.138;2023-02-01T09:26:21;4.60;99.90
14783;DHT22;7483;50.498;12.138;2023-02-01T09:28:57;4.60;99.90
14783;DHT22;7483;50.498;12.138;2023-02-01T09:31:25;4.60;99.90
14783;DHT22;7483;50.498;12.138;2023-02-01T09:33:53;4.60;99.90
14783;DHT22;7483;50.498;12.138;2023-02-01T09:36:21;4.60;99.90
14783;DHT22;7483;50.498;12.138;2023-02-01T09:38:50;4.60;99.90
14783;DHT22;7483;50.498;12.138;2023-02-01T09:41:31;4.60;99.90
14783;DHT22;7483;50.498;12.138;2023-02-01T09:44:12;4.70;99.90
14783;DHT22;7483;50.498;12.138;2023-02-01T09:46:53;4.70;99.90
14783;DHT22;7483;50.498;12.138;2023-02-01T09:49:27;4.80;99.90
14783;DHT22;7483;50.498;12.138;2023-02-01T09:52:00;4.80;99.90
14783;DHT22;7483;50.498;12.138;2023-02-01T09:54:40;4.80;99.90
14783;DHT22;7483;50.498;12.138;2023-02-01T09:57:16;4.80;99.90
14783;DHT22;7483;50.498;12.138;2023-02-01T09:59:52;4.70;99.90
14783;DHT22;7483;50.498;12.138;2023-02-01T10:02:39;4.70;99.90
14783;DHT22;7483;50.498;12.138;2023-02-01T10:05:13;4.80;99.90
14783;DHT22;7483;50.498;12.138;2023-02-01T10:07:51;4.80;99.90
14783;DHT22;7483;50.498;12.138;2023-02-01T10:10:30;4.80;99.90
14783;DHT22;7483;50.498;12.138;2023-02-01T10:13:22;4.80;99.90
14783;DHT22;7483;50.498;12.138;2023-02-01T10:16:12;4.80;99.90
14783;DHT22;7483;50.498;12.138;2023-02-01T10:19:06;4.80;99.90
14783;DHT22;7483;50.498;12.138;2023-02-01T10:21:56;4.80;99.90
14783;DHT22;7483;50.498;12.138;2023-02-01T10:24:42;4.80;99.90
14783;DHT22;7483;50.498;12.138;2023-02-01T10:27:19;4.80;99.90
14783;DHT22;7483;50.498;12.138;2023-02-01T10:29:53;4.80;99.90
14783;DHT22;7483;50.498;12.138;2023-02-01T10:32:29;4.90;99.90
14783;DHT22;7483;50.498;12.138;2023-02-01T10:35:00;4.90;99.90
14783;DHT22;7483;50.498;12.138;2023-02-01T10:37:31;4.80;99.90
14783;DHT22;7483;50.498;12.138;2023-02-01T10:40:03;4.90;99.90
14783;DHT22;7483;50.498;12.138;2023-02-01T10:42:40;4.90;99.90
14783;DHT22;7483;50.498;12.138;2023-02-01T10:45:13;4.90;99.90
14783;DHT22;7483;50.498;12.138;2023-02-01T10:47:45;4.90;99.90
14783;DHT22;7483;50.498;12.138;2023-02-01T10:50:19;4.90;99.90
14783;DHT22;7483;50.498;12.138;2023-02-01T10:53:00;4.90;99.90
14783;DHT22;7483;50.498;12.138;2023-02-01T10:55:36;4.90;99.90
14783;DHT22;7483;50.498;12.138;2023-02-01T10:58:14;4.90;99.90
14783;DHT22;7483;50.498;12.138;2023-02-01T11:00:47;4.90;99.90
14783;DHT22;7483;50.498;12.138;2023-02-01T11:03:30;5.00;99.90
14783;DHT22;7483;50.498;12.138;2023-02-01T11:06:03;5.00;99.90
14783;DHT22;7483;50.498;12.138;2023-02-01T11:08:47;5.00;99.90
14783;DHT22;7483;50.498;12.138;2023-02-01T11:11:16;5.00;99.90
14783;DHT22;7483;50.498;12.138;2023-02-01T11:13:52;5.10;99.90
14783;DHT22;7483;50.498;12.138;2023-02-01T11:16:30;5.10;99.90
14783;DHT22;7483;50.498;12.138;2023-02-01T11:19:02;5.20;99.90
14783;DHT22;7483;50.498;12.138;2023-02-01T11:21:31;5.20;99.90
14783;DHT22;7483;50.498;12.138;2023-02-01T11:24:01;5.30;99.90
14783;DHT22;7483;50.498;12.138;2023-02-01T11:26:31;5.30;99.90
14783;DHT22;7483;50.498;12.138;2023-02-01T11:29:03;5.40;99.90
14783;DHT22;7483;50.498;12.138;2023-02-01T11:31:37;5.40;99.90
14783;DHT22;7483;50.498;12.138;2023-02-01T11:34:10;5.40;99.90
14783;DHT22;7483;50.498;12.138;2023-02-01T11:36:41;5.50;99.90
14783;DHT22;7483;50.498;12.138;2023-02-01T11:39:25;5.40;99.90
14783;DHT22;7483;50.498;12.138;2023-02-01T11:42:01;5.50;99.90
14783;DHT22;7483;50.498;12.138;2023-02-01T11:44:34;5.50;99.90
14783;DHT22;7483;50.498;12.138;2023-02-01T11:47:26;5.40;99.90
14783;DHT22;7483;50.498;12.138;2023-02-01T11:49:56;5.30;99.90
14783;DHT22;7483;50.498;12.138;2023-02-01T11:52:43;5.30;99.90
14783;DHT22;7483;50.498;12.138;2023-02-01T11:55:45;5.30;99.90
14783;DHT22;7483;50.498;12.138;2023-02-01T11:58:46;5.30;99.90
14783;DHT22;7483;50.498;12.138;2023-02-01T12:01:39;5.10;99.90
14783;DHT22;7483;50.498;12.138;2023-02-01T12:04:45;5.10;99.90
14783;DHT22;7483;50.498;12.138;2023-02-01T12:07:46;5.10;99.90
14783;DHT22;7483;50.498;12.138;2023-02-01T12:10:30;5.10;99.90
14783;DHT22;7483;50.498;12.138;2023-02-01T12:13:14;5.10;99.90
14783;DHT22;7483;50.498;12.138;2023-02-01T12:16:02;5.10;99.90
14783;DHT22;7483;50.498;12.138;2023-02-01T12:21:58;5.20;99.90
14783;DHT22;7483;50.498;12.138;2023-02-01T12:24:50;5.20;99.90
14783;DHT22;7483;50.498;12.138;2023-02-01T12:27:52;5.20;99.90
14783;DHT22;7483;50.498;12.138;2023-02-01T12:30:56;5.30;99.90
14783;DHT22;7483;50.498;12.138;2023-02-01T12:33:50;5.30;99.90
14783;DHT22;7483;50.498;12.138;2023-02-01T12:36:35;5.40;99.90
14783;DHT22;7483;50.498;12.138;2023-02-01T12:39:17;5.40;99.90
14783;DHT22;7483;50.498;12.138;2023-02-01T12:41:57;5.50;99.90
14783;DHT22;7483;50.498;12.138;2023-02-01T12:44:38;5.50;99.90
14783;DHT22;7483;50.498;12.138;2023-02-01T12:47:16;5.50;99.90
14783;DHT22;7483;50.498;12.138;2023-02-01T12:49:55;5.50;99.90
14783;DHT22;7483;50.498;12.138;2023-02-01T12:52:30;5.50;99.90
14783;DHT22;7483;50.498;12.138;2023-02-01T12:55:10;5.50;99.90
14783;DHT22;7483;50.498;12.138;2023-02-01T12:57:48;5.40;99.90
14783;DHT22;7483;50.498;12.138;2023-02-01T13:00:24;5.40;99.90
14783;DHT22;7483;50.498;12.138;2023-02-01T13:03:03;5.40;99.90
14783;DHT22;7483;50.498;12.138;2023-02-01T13:05:46;5.40;99.90
14783;DHT22;7483;50.498;12.138;2023-02-01T13:08:22;5.30;99.90
14783;DHT22;7483;50.498;12.138;2023-02-01T13:11:00;5.30;99.90
14783;DHT22;7483;50.498;12.138;2023-02-01T13:13:36;5.40;99.90
14783;DHT22;7483;50.498;12.138;2023-02-01T13:16:15;5.50;99.90
14783;DHT22;7483;50.498;12.138;2023-02-01T13:18:53;5.50;99.90
14783;DHT22;7483;50.498;12.138;2023-02-01T13:21:32;5.50;99.90
14783;DHT22;7483;50.498;12.138;2023-02-01T13:24:03;5.40;99.90
14783;DHT22;7483;50.498;12.138;2023-02-01T13:26:33;5.30;99.90
14783;DHT22;7483;50.498;12.138;2023-02-01T13:29:04;5.20;99.90
14783;DHT22;7483;50.498;12.138;2023-02-01T13:32:09;5.10;99.90
14783;DHT22;7483;50.498;12.138;2023-02-01T13:35:08;5.10;99.90
14783;DHT22;7483;50.498;12.138;2023-02-01T13:38:00;5.10;99.90
14783;DHT22;7483;50.498;12.138;2023-02-01T13:40:41;5.10;99.90
14783;DHT22;7483;50.498;12.138;2023-02-01T13:43:19;5.10;99.90
14783;DHT22;7483;50.498;12.138;2023-02-01T13:45:51;5.10;99.90
14783;DHT22;7483;50.498;12.138;2023-02-01T13:48:25;5.10;99.90
14783;DHT22;7483;50.498;12.138;2023-02-01T13:50:58;5.10;99.90
14783;DHT22;7483;50.498;12.138;2023-02-01T13:53:29;5.00;99.90
14783;DHT22;7483;50.498;12.138;2023-02-01T13:56:01;5.00;99.90
14783;DHT22;7483;50.498;12.138;2023-02-01T13:58:36;5.00;99.90
14783;DHT22;7483;50.498;12.138;2023-02-01T14:04:46;5.00;99.90
14783;DHT22;7483;50.498;12.138;2023-02-01T14:07:19;5.00;99.90
14783;DHT22;7483;50.498;12.138;2023-02-01T14:09:49;5.00;99.90
14783;DHT22;7483;50.498;12.138;2023-02-01T14:12:42;5.00;99.90
14783;DHT22;7483;50.498;12.138;2023-02-01T14:15:25;5.00;99.90
14783;DHT22;7483;50.498;12.138;2023-02-01T14:17:55;5.00;99.90
14783;DHT22;7483;50.498;12.138;2023-02-01T14:20:45;5.00;99.90
14783;DHT22;7483;50.498;12.138;2023-02-01T14:23:24;5.00;99.90
14783;DHT22;7483;50.498;12.138;2023-02-01T14:26:15;5.00;99.90
14783;DHT22;7483;50.498;12.138;2023-02-01T14:28:57;5.00;99.90
14783;DHT22;7483;50.498;12.138;2023-02-01T14:31:52;5.10;99.90
14783;DHT22;7483;50.498;12.138;2023-02-01T14:34:31;5.10;99.90
14783;DHT22;7483;50.498;12.138;2023-02-01T14:37:06;5.20;99.90
14783;DHT22;7483;50.498;12.138;2023-02-01T14:39:52;5.20;99.90
14783;DHT22;7483;50.498;12.138;2023-02-01T14:42:28;5.20;99.90
14783;DHT22;7483;50.498;12.138;2023-02-01T14:48:43;5.30;99.90
14783;DHT22;7483;50.498;12.138;2023-02-01T14:51:15;5.30;99.90
14783;DHT22;7483;50.498;12.138;2023-02-01T14:53:45;5.30;99.90
14783;DHT22;7483;50.498;12.138;2023-02-01T14:56:17;5.30;99.90
14783;DHT22;7483;50.498;12.138;2023-02-01T14:58:52;5.30;99.90
14783;DHT22;7483;50.498;12.138;2023-02-01T15:01:26;5.30;99.90
14783;DHT22;7483;50.498;12.138;2023-02-01T15:04:03;5.20;99.90
14783;DHT22;7483;50.498;12.138;2023-02-01T15:06:37;5.20;99.90
14783;DHT22;7483;50.498;12.138;2023-02-01T15:09:10;5.20;99.90
14783;DHT22;7483;50.498;12.138;2023-02-01T15:11:58;5.20;99.90
14783;DHT22;7483;50.498;12.138;2023-02-01T15:14:30;5.20;99.90
14783;DHT22;7483;50.498;12.138;2023-02-01T15:16:59;5.20;99.90
14783;DHT22;7483;50.498;12.138;2023-02-01T15:19:30;5.10;99.90
14783;DHT22;7483;50.498;12.138;2023-02-01T15:21:59;5.10;99.90
14783;DHT22;7483;50.498;12.138;2023-02-01T15:24:28;5.10;99.90
14783;DHT22;7483;50.498;12.138;2023-02-01T15:27:03;5.10;99.90
14783;DHT22;7483;50.498;12.138;2023-02-01T15:29:32;5.10;99.90
14783;DHT22;7483;50.498;12.138;2023-02-01T15:32:00;5.10;99.90
14783;DHT22;7483;50.498;12.138;2023-02-01T15:37:22;5.10;99.90
14783;DHT22;7483;50.498;12.138;2023-02-01T15:40:19;5.10;99.90
14783;DHT22;7483;50.498;12.138;2023-02-01T15:42:51;5.10;99.90
14783;DHT22;7483;50.498;12.138;2023-02-01T15:45:26;5.10;99.90
14783;DHT22;7483;50.498;12.138;2023-02-01T15:47:57;5.10;99.90
14783;DHT22;7483;50.498;12.138;2023-02-01T15:50:28;5.10;99.90
14783;DHT22;7483;50.498;12.138;2023-02-01T15:52:59;5.10;99.90
14783;DHT22;7483;50.498;12.138;2023-02-01T15:55:33;5.10;99.90
14783;DHT22;7483;50.498;12.138;2023-02-01T15:58:08;5.10;99.90
14783;DHT22;7483;50.498;12.138;2023-02-01T16:00:44;5.10;99.90
14783;DHT22;7483;50.498;12.138;2023-02-01T16:03:28;5.10;99.90
14783;DHT22;7483;50.498;12.138;2023-02-01T16:06:05;5.10;99.90
14783;DHT22;7483;50.498;12.138;2023-02-01T16:08:36;5.10;99.90
14783;DHT22;7483;50.498;12.138;2023-02-01T16:11:22;5.10;99.90
14783;DHT22;7483;50.498;12.138;2023-02-01T16:13:54;5.10;99.90
14783;DHT22;7483;50.498;12.138;2023-02-01T16:16:22;5.10;99.90
14783;DHT22;7483;50.498;12.138;2023-02-01T16:18:50;5.00;99.90
14783;DHT22;7483;50.498;12.138;2023-02-01T16:21:18;5.00;99.90
14783;DHT22;7483;50.498;12.138;2023-02-01T16:23:49;5.00;99.90
14783;DHT22;7483;50.498;12.138;2023-02-01T16:26:19;5.00;99.90
14783;DHT22;7483;50.498;12.138;2023-02-01T16:28:47;5.00;99.90
14783;DHT22;7483;50.498;12.138;2023-02-01T16:31:17;5.00;99.90
14783;DHT22;7483;50.498;12.138;2023-02-01T16:33:51;5.00;99.90
14783;DHT22;7483;50.498;12.138;2023-02-01T16:36:20;5.00;99.90
14783;DHT22;7483;50.498;12.138;2023-02-01T16:38:52;5.00;99.90
14783;DHT22;7483;50.498;12.138;2023-02-01T16:41:21;5.00;99.90
14783;DHT22;7483;50.498;12.138;2023-02-01T16:43:52;5.00;99.90